Time;durP1;ratioP1;P1;durP2;ratioP2;P2;SDS_P1;SDS_P2;PMS_P1;PMS_P2;Temp;Humidity;BMP_temperature;BMP_pressure;BME280_temperature;BME280_humidity;BME280_pressure;Samples;Min_cycle;Max_cycle;Signal;HPM_P1;HPM_P2
2021/09/26 00:01:44;;;;;;;7.60;6.90;;;16.00;99.90;;;;;;5079555;28;20419;-39
2021/09/26 00:04:10;;;;;;;8.07;7.37;;;15.90;99.90;;;;;;5086112;28;20661;-38
2021/09/26 00:06:36;;;;;;;8.00;7.20;;;15.90;99.90;;;;;;5086741;28;20234;-38
2021/09/26 00:09:02;;;;;;;9.60;7.70;;;16.00;99.90;;;;;;5085407;28;20462;-41
2021/09/26 00:11:28;;;;;;;8.97;7.63;;;15.90;99.90;;;;;;5081452;28;20196;-38
2021/09/26 00:13:54;;;;;;;8.60;7.67;;;16.00;99.90;;;;;;5082024;28;20426;-38
2021/09/26 00:16:20;;;;;;;8.90;8.00;;;16.00;99.90;;;;;;5086109;28;20565;-41
2021/09/26 00:18:46;;;;;;;7.83;6.60;;;16.00;99.90;;;;;;5086589;28;20297;-38
2021/09/26 00:21:12;;;;;;;8.97;8.07;;;16.10;99.90;;;;;;5086086;28;20410;-39
2021/09/26 00:23:38;;;;;;;7.80;7.10;;;16.00;99.90;;;;;;5084276;28;20428;-38
2021/09/26 00:26:04;;;;;;;7.80;7.10;;;16.00;99.90;;;;;;5084717;28;20188;-38
2021/09/26 00:28:31;;;;;;;8.30;7.50;;;16.00;99.90;;;;;;5076849;28;20445;-39
2021/09/26 00:30:57;;;;;;;8.63;7.20;;;16.10;99.90;;;;;;5086399;28;21086;-39
2021/09/26 00:33:23;;;;;;;8.20;7.40;;;16.00;99.90;;;;;;5084761;28;20431;-39
2021/09/26 00:35:49;;;;;;;8.77;7.77;;;15.90;99.90;;;;;;5085551;28;20422;-39
2021/09/26 00:38:18;;;;;;;8.80;7.40;;;15.90;99.90;;;;;;5084701;28;20493;-39
2021/09/26 00:40:45;;;;;;;10.00;7.97;;;15.80;99.90;;;;;;5085847;28;20414;-38
2021/09/26 00:43:11;;;;;;;8.30;7.50;;;15.70;99.90;;;;;;5075654;28;20430;-38
2021/09/26 00:45:37;;;;;;;8.83;6.97;;;15.70;99.90;;;;;;5086034;28;20788;-39
2021/09/26 00:48:03;;;;;;;8.10;7.40;;;15.70;99.90;;;;;;5086281;28;20446;-40
2021/09/26 00:50:30;;;;;;;7.83;7.13;;;15.70;99.90;;;;;;5086098;28;20203;-39
2021/09/26 00:52:56;;;;;;;7.90;7.20;;;15.70;99.90;;;;;;5085626;28;21209;-38
2021/09/26 00:55:22;;;;;;;12.03;8.03;;;15.70;99.90;;;;;;5085003;28;20497;-39
2021/09/26 00:57:48;;;;;;;8.57;7.37;;;15.80;99.90;;;;;;5079408;28;20440;-38
2021/09/26 01:00:17;;;;;;;8.37;7.57;;;15.80;99.90;;;;;;5060346;28;20423;-38
2021/09/26 01:02:42;;;;;;;8.97;7.27;;;15.80;99.90;;;;;;5083746;28;20464;-38
2021/09/26 01:05:10;;;;;;;7.77;6.97;;;15.80;99.90;;;;;;5084435;28;20509;-39
2021/09/26 01:08:02;;;;;;;7.43;6.63;;;15.80;99.90;;;;;;5084422;28;20306;-39
2021/09/26 01:10:57;;;;;;;7.40;6.80;;;15.80;99.90;;;;;;5086243;28;20809;-40
2021/09/26 01:14:11;;;;;;;7.20;6.60;;;15.80;99.90;;;;;;5068794;28;21064;-40
2021/09/26 01:17:00;;;;;;;8.47;6.93;;;15.90;99.90;;;;;;5084225;28;20440;-38
2021/09/26 01:19:48;;;;;;;8.50;7.60;;;15.90;99.90;;;;;;5084171;28;20451;-39
2021/09/26 01:22:21;;;;;;;7.73;6.93;;;15.80;99.90;;;;;;5085573;28;20463;-39
2021/09/26 01:24:46;;;;;;;8.00;6.50;;;15.70;99.90;;;;;;5082295;28;20430;-38
2021/09/26 01:27:24;;;;;;;6.87;6.27;;;15.70;99.90;;;;;;5082970;28;20426;-40
2021/09/26 01:30:17;;;;;;;7.30;6.60;;;15.60;99.90;;;;;;5083065;28;20172;-40
2021/09/26 01:33:04;;;;;;;7.80;7.07;;;15.50;99.90;;;;;;5084746;28;20426;-38
2021/09/26 01:35:33;;;;;;;9.93;7.43;;;15.60;99.90;;;;;;5085765;28;20410;-38
2021/09/26 01:38:20;;;;;;;7.03;6.50;;;15.60;99.90;;;;;;5084069;28;20449;-38
2021/09/26 01:40:53;;;;;;;8.13;6.70;;;15.50;99.90;;;;;;5085562;28;20427;-38
2021/09/26 01:43:25;;;;;;;7.17;6.47;;;15.60;99.90;;;;;;5071916;28;20611;-39
2021/09/26 01:45:58;;;;;;;6.93;6.23;;;15.70;99.90;;;;;;5081611;28;20415;-38
2021/09/26 01:48:47;;;;;;;7.40;6.70;;;15.80;99.90;;;;;;5084647;28;20529;-39
2021/09/26 01:51:14;;;;;;;6.37;5.80;;;15.90;99.90;;;;;;5085368;28;20411;-40
2021/09/26 01:53:44;;;;;;;6.77;6.13;;;16.00;99.90;;;;;;5084561;28;20426;-38
2021/09/26 01:56:14;;;;;;;7.17;6.57;;;16.10;99.90;;;;;;5085486;28;20406;-38
2021/09/26 01:58:43;;;;;;;7.70;6.90;;;16.10;99.90;;;;;;5073707;28;20492;-39
2021/09/26 02:01:09;;;;;;;6.60;5.93;;;16.20;99.90;;;;;;5085395;28;20422;-39
2021/09/26 02:03:38;;;;;;;6.37;5.77;;;16.30;99.90;;;;;;5073796;28;20430;-38
2021/09/26 02:06:04;;;;;;;6.77;6.07;;;16.30;99.90;;;;;;5088880;28;20605;-39
2021/09/26 02:08:30;;;;;;;6.80;6.07;;;16.40;99.90;;;;;;5087293;28;20438;-39
2021/09/26 02:10:56;;;;;;;11.03;6.70;;;16.40;99.90;;;;;;5087894;28;20716;-38
2021/09/26 02:13:23;;;;;;;7.47;6.33;;;16.50;99.90;;;;;;5077727;28;20446;-40
2021/09/26 02:15:50;;;;;;;6.80;6.10;;;16.50;99.90;;;;;;5084994;28;20803;-38
2021/09/26 02:18:16;;;;;;;6.37;5.87;;;16.50;99.90;;;;;;5088803;28;20843;-38
2021/09/26 02:20:43;;;;;;;6.73;6.13;;;16.60;99.90;;;;;;5088447;28;20422;-38
2021/09/26 02:23:10;;;;;;;7.17;6.30;;;16.60;99.90;;;;;;5086651;28;20454;-39
2021/09/26 02:25:39;;;;;;;6.43;5.83;;;16.70;99.90;;;;;;5087460;28;20790;-39
2021/09/26 02:28:06;;;;;;;7.20;6.50;;;16.70;99.90;;;;;;5079035;28;20446;-38
2021/09/26 02:30:31;;;;;;;6.47;5.87;;;16.80;99.90;;;;;;5085577;28;20426;-38
2021/09/26 02:32:57;;;;;;;6.63;6.03;;;16.80;99.90;;;;;;5086416;28;20502;-39
2021/09/26 02:35:23;;;;;;;7.70;6.10;;;16.90;99.90;;;;;;5088363;28;20634;-38
2021/09/26 02:37:49;;;;;;;6.50;5.90;;;16.90;99.90;;;;;;5088616;28;20873;-38
2021/09/26 02:40:16;;;;;;;6.47;5.80;;;16.90;99.90;;;;;;5088812;28;20875;-40
2021/09/26 02:42:50;;;;;;;6.03;5.43;;;16.90;99.90;;;;;;5084651;28;20977;-38
2021/09/26 02:45:37;;;;;;;6.00;5.50;;;16.90;99.90;;;;;;5083187;28;20484;-39
2021/09/26 02:48:06;;;;;;;7.20;6.50;;;16.90;99.90;;;;;;5082166;28;20407;-40
2021/09/26 02:50:32;;;;;;;6.87;6.27;;;16.90;99.90;;;;;;5088343;28;20541;-40
2021/09/26 02:52:59;;;;;;;6.30;5.80;;;17.00;99.90;;;;;;5087447;28;20426;-39
2021/09/26 02:55:26;;;;;;;7.87;7.17;;;17.00;99.90;;;;;;5087928;28;20529;-38
2021/09/26 02:57:51;;;;;;;7.47;6.40;;;17.10;99.90;;;;;;5081863;28;20817;-39
2021/09/26 03:00:17;;;;;;;6.50;5.90;;;17.00;99.90;;;;;;5084169;28;20411;-38
2021/09/26 03:02:45;;;;;;;7.33;6.70;;;17.00;99.90;;;;;;5078262;28;20656;-38
2021/09/26 03:05:11;;;;;;;6.90;6.27;;;17.10;99.90;;;;;;5082222;28;20199;-40
2021/09/26 03:07:37;;;;;;;6.53;5.93;;;17.10;99.90;;;;;;5087664;28;20430;-39
2021/09/26 03:10:05;;;;;;;6.40;5.80;;;17.10;99.90;;;;;;5087760;28;20419;-41
2021/09/26 03:12:31;;;;;;;6.70;6.10;;;17.20;99.90;;;;;;5082690;28;20227;-39
2021/09/26 03:14:56;;;;;;;6.83;6.07;;;17.20;99.90;;;;;;5072483;28;20505;-39
2021/09/26 03:17:22;;;;;;;6.83;6.23;;;17.20;99.90;;;;;;5085781;28;20184;-38
2021/09/26 03:19:47;;;;;;;6.10;5.50;;;17.20;99.90;;;;;;5087230;28;20239;-42
2021/09/26 03:22:13;;;;;;;6.43;5.83;;;17.20;99.90;;;;;;5049489;28;20263;-39
2021/09/26 03:24:40;;;;;;;6.37;5.60;;;17.20;99.90;;;;;;5080210;28;20180;-39
2021/09/26 03:27:11;;;;;;;6.87;6.17;;;17.20;99.90;;;;;;5087500;28;20515;-38
2021/09/26 03:29:40;;;;;;;7.00;6.30;;;17.20;99.90;;;;;;5070737;28;20439;-38
2021/09/26 03:32:07;;;;;;;8.77;6.00;;;17.20;99.90;;;;;;5087609;28;20692;-39
2021/09/26 03:34:33;;;;;;;6.60;5.70;;;17.20;99.90;;;;;;5086473;28;20430;-39
2021/09/26 03:36:59;;;;;;;9.00;5.90;;;17.20;99.90;;;;;;5085915;28;20422;-39
2021/09/26 03:39:24;;;;;;;6.67;6.07;;;17.20;99.90;;;;;;5086906;28;20520;-38
2021/09/26 03:41:50;;;;;;;6.27;5.77;;;17.20;99.90;;;;;;5086528;28;20238;-39
2021/09/26 03:44:16;;;;;;;6.93;6.23;;;17.20;99.90;;;;;;5071273;28;20200;-39
2021/09/26 03:46:41;;;;;;;7.13;6.30;;;17.30;99.90;;;;;;5086864;28;20176;-38
2021/09/26 03:49:07;;;;;;;7.67;6.70;;;17.30;99.90;;;;;;5085896;28;20202;-40
2021/09/26 03:51:33;;;;;;;6.87;6.27;;;17.30;99.90;;;;;;5087286;28;20198;-38
2021/09/26 03:53:59;;;;;;;8.00;6.50;;;17.30;99.90;;;;;;5086161;28;20283;-42
2021/09/26 03:56:24;;;;;;;7.40;6.30;;;17.30;99.90;;;;;;5087384;28;20446;-38
2021/09/26 03:58:50;;;;;;;8.00;7.20;;;17.30;99.90;;;;;;5077111;28;20626;-38
2021/09/26 04:01:16;;;;;;;8.13;6.00;;;17.30;99.90;;;;;;5082735;28;20207;-39
2021/09/26 04:03:41;;;;;;;7.17;6.47;;;17.40;99.90;;;;;;5085444;28;20177;-39
2021/09/26 04:06:10;;;;;;;7.33;6.57;;;17.40;99.90;;;;;;5085261;28;20224;-39
2021/09/26 04:08:39;;;;;;;8.97;7.67;;;17.40;99.90;;;;;;5086795;28;20204;-38
2021/09/26 04:11:06;;;;;;;7.50;6.60;;;17.40;99.90;;;;;;5086701;28;20513;-40
2021/09/26 04:13:32;;;;;;;6.33;5.43;;;17.40;99.90;;;;;;5079672;28;20463;-39
2021/09/26 04:15:58;;;;;;;6.97;6.27;;;17.40;99.90;;;;;;5084318;28;20976;-39
2021/09/26 04:18:23;;;;;;;7.10;6.40;;;17.40;99.90;;;;;;5084975;28;20680;-39
2021/09/26 04:20:49;;;;;;;7.23;6.53;;;17.40;99.90;;;;;;5086247;28;20248;-40
2021/09/26 04:23:15;;;;;;;8.77;6.27;;;17.40;99.90;;;;;;5083442;28;20222;-38
2021/09/26 04:25:40;;;;;;;6.63;6.07;;;17.50;99.90;;;;;;5084465;28;20199;-38
2021/09/26 04:28:06;;;;;;;7.07;6.47;;;17.40;99.90;;;;;;5082383;28;20181;-40
2021/09/26 04:30:33;;;;;;;6.50;6.00;;;17.40;99.90;;;;;;5080236;28;20506;-39
2021/09/26 04:32:59;;;;;;;7.20;6.20;;;17.50;99.90;;;;;;5084503;28;20617;-39
2021/09/26 04:35:25;;;;;;;7.20;5.80;;;17.40;99.90;;;;;;5067664;28;20472;-40
2021/09/26 04:37:52;;;;;;;7.20;6.47;;;17.50;99.90;;;;;;5084333;28;20446;-40
2021/09/26 04:40:18;;;;;;;6.57;5.97;;;17.50;99.90;;;;;;5085196;28;20599;-39
2021/09/26 04:42:44;;;;;;;7.00;6.33;;;17.50;99.90;;;;;;5085300;28;20427;-39
2021/09/26 04:45:11;;;;;;;6.53;5.90;;;17.50;99.90;;;;;;5073558;28;20437;-39
2021/09/26 04:47:37;;;;;;;7.03;6.37;;;17.60;99.90;;;;;;5085901;28;20184;-39
2021/09/26 04:50:05;;;;;;;6.33;5.63;;;17.60;99.90;;;;;;5085934;28;20430;-38
2021/09/26 04:52:35;;;;;;;7.10;6.40;;;17.60;99.90;;;;;;5085694;28;20437;-39
2021/09/26 04:55:00;;;;;;;6.60;6.00;;;17.60;99.90;;;;;;5085326;28;20425;-42
2021/09/26 04:57:26;;;;;;;6.27;5.67;;;17.60;99.90;;;;;;5084345;28;20439;-39
2021/09/26 04:59:52;;;;;;;8.27;6.50;;;17.60;99.90;;;;;;5078734;28;20211;-38
2021/09/26 05:02:18;;;;;;;8.57;6.30;;;17.60;99.90;;;;;;5081086;28;20426;-39
2021/09/26 05:04:43;;;;;;;7.17;5.80;;;17.60;99.90;;;;;;5083241;28;20241;-41
2021/09/26 05:07:09;;;;;;;6.97;6.27;;;17.70;99.90;;;;;;5085475;28;20254;-39
2021/09/26 05:09:35;;;;;;;6.90;6.30;;;17.70;99.90;;;;;;5085616;28;20199;-41
2021/09/26 05:12:00;;;;;;;6.97;6.03;;;17.60;99.90;;;;;;5084706;28;20196;-38
2021/09/26 05:14:26;;;;;;;7.30;6.10;;;17.60;99.90;;;;;;5075755;28;20683;-38
2021/09/26 05:16:52;;;;;;;8.20;6.50;;;17.60;99.90;;;;;;5085893;28;20193;-39
2021/09/26 05:19:18;;;;;;;7.00;5.70;;;17.60;99.90;;;;;;5085907;28;20212;-43
2021/09/26 05:21:43;;;;;;;6.93;6.30;;;17.60;99.90;;;;;;5085638;28;20181;-40
2021/09/26 05:24:09;;;;;;;6.87;6.27;;;17.60;99.90;;;;;;5081707;28;20428;-38
2021/09/26 05:26:35;;;;;;;6.67;5.97;;;17.60;99.90;;;;;;5085641;28;20181;-39
2021/09/26 05:29:03;;;;;;;6.93;6.20;;;17.60;99.90;;;;;;5077556;28;20957;-39
2021/09/26 05:31:29;;;;;;;7.00;6.30;;;17.60;99.90;;;;;;5083576;28;20437;-40
2021/09/26 05:33:56;;;;;;;7.07;6.47;;;17.60;99.90;;;;;;5084878;28;20419;-41
2021/09/26 05:36:22;;;;;;;7.80;7.00;;;17.60;99.90;;;;;;5086274;28;20498;-40
2021/09/26 05:38:48;;;;;;;6.90;6.30;;;17.60;99.90;;;;;;5087982;28;21065;-39
2021/09/26 05:41:13;;;;;;;6.53;5.93;;;17.60;99.90;;;;;;5089482;28;20509;-41
2021/09/26 05:43:39;;;;;;;7.33;6.60;;;17.60;99.90;;;;;;5084694;28;20202;-39
2021/09/26 05:46:05;;;;;;;7.13;6.40;;;17.60;99.90;;;;;;5078980;28;20253;-38
2021/09/26 05:48:31;;;;;;;7.37;6.67;;;17.70;99.90;;;;;;5089331;28;20206;-38
2021/09/26 05:50:56;;;;;;;6.83;6.23;;;17.60;99.90;;;;;;5089383;28;20192;-38
2021/09/26 05:53:22;;;;;;;7.50;6.80;;;17.60;99.90;;;;;;5088693;28;20188;-39
2021/09/26 05:55:48;;;;;;;7.80;6.50;;;17.70;99.90;;;;;;5089464;28;20461;-39
2021/09/26 05:58:14;;;;;;;6.73;6.13;;;17.60;99.90;;;;;;5088005;28;20211;-38
2021/09/26 06:00:40;;;;;;;8.83;6.10;;;17.70;99.90;;;;;;5081669;28;20765;-39
2021/09/26 06:03:06;;;;;;;7.67;6.60;;;17.70;99.90;;;;;;5085190;28;20820;-39
2021/09/26 06:05:31;;;;;;;7.57;6.70;;;17.70;99.90;;;;;;5089283;28;20230;-39
2021/09/26 06:07:57;;;;;;;7.67;6.63;;;17.70;99.90;;;;;;5070463;28;20196;-39
2021/09/26 06:10:24;;;;;;;7.10;6.00;;;17.70;99.90;;;;;;5088868;28;20192;-39
2021/09/26 06:12:50;;;;;;;6.80;6.17;;;17.70;99.90;;;;;;5087330;28;20445;-39
2021/09/26 06:15:15;;;;;;;8.13;6.40;;;17.70;99.90;;;;;;5082564;28;21224;-41
2021/09/26 06:17:41;;;;;;;7.77;6.73;;;17.70;99.90;;;;;;5082781;28;20193;-39
2021/09/26 06:20:08;;;;;;;7.07;6.50;;;17.70;99.90;;;;;;5087481;28;20208;-40
2021/09/26 06:22:33;;;;;;;6.80;6.20;;;17.70;99.90;;;;;;5084176;28;20856;-39
2021/09/26 06:24:59;;;;;;;7.50;6.37;;;17.70;99.90;;;;;;5086125;28;20518;-39
2021/09/26 06:27:26;;;;;;;7.33;6.63;;;17.70;99.90;;;;;;5088640;28;20184;-39
2021/09/26 06:29:52;;;;;;;7.70;6.90;;;17.70;99.90;;;;;;5082278;28;20279;-38
2021/09/26 06:32:17;;;;;;;8.30;7.37;;;17.70;99.90;;;;;;5083126;28;20837;-41
2021/09/26 06:34:43;;;;;;;8.67;7.77;;;17.70;99.90;;;;;;5087793;28;20513;-39
2021/09/26 06:37:09;;;;;;;7.27;6.57;;;17.70;99.90;;;;;;5087952;28;20180;-40
2021/09/26 06:39:35;;;;;;;7.40;6.77;;;17.80;99.90;;;;;;5088012;28;20219;-40
2021/09/26 06:42:02;;;;;;;7.00;6.30;;;17.80;99.90;;;;;;5087117;28;20245;-42
2021/09/26 06:44:27;;;;;;;7.80;7.10;;;17.80;99.90;;;;;;5081100;28;20960;-38
2021/09/26 06:46:53;;;;;;;8.13;7.33;;;17.80;99.90;;;;;;5083607;28;20410;-39
2021/09/26 06:49:19;;;;;;;7.77;6.97;;;17.90;99.90;;;;;;5087804;28;20180;-39
2021/09/26 06:51:45;;;;;;;7.33;6.63;;;17.90;99.90;;;;;;5087765;28;20426;-38
2021/09/26 06:54:11;;;;;;;8.03;7.37;;;17.90;99.90;;;;;;5087193;28;20964;-38
2021/09/26 06:56:37;;;;;;;7.30;6.70;;;17.90;99.90;;;;;;5086587;28;20437;-39
2021/09/26 06:59:03;;;;;;;9.13;7.63;;;17.90;99.90;;;;;;5085665;28;20235;-42
2021/09/26 07:01:32;;;;;;;8.27;7.40;;;18.00;99.90;;;;;;5081711;28;20809;-39
2021/09/26 07:03:58;;;;;;;8.10;7.40;;;18.00;99.90;;;;;;5081755;28;20795;-39
2021/09/26 07:06:24;;;;;;;8.87;7.97;;;18.10;99.90;;;;;;5087623;28;20864;-40
2021/09/26 07:08:50;;;;;;;7.90;7.20;;;18.10;99.90;;;;;;5082140;28;20709;-39
2021/09/26 07:11:16;;;;;;;11.10;7.10;;;18.10;99.90;;;;;;5086539;28;20793;-38
2021/09/26 07:13:41;;;;;;;7.57;6.83;;;18.20;99.90;;;;;;5086534;28;20601;-38
2021/09/26 07:16:07;;;;;;;7.83;7.03;;;18.20;99.90;;;;;;5080811;28;20195;-39
2021/09/26 07:18:33;;;;;;;8.63;7.43;;;18.20;99.90;;;;;;5087098;28;20552;-40
2021/09/26 07:20:58;;;;;;;7.47;6.77;;;18.20;99.90;;;;;;5083830;28;20546;-39
2021/09/26 07:23:24;;;;;;;10.00;7.53;;;18.20;99.90;;;;;;5087035;28;20184;-39
2021/09/26 07:25:50;;;;;;;8.60;7.83;;;18.30;99.90;;;;;;5086540;28;20184;-39
2021/09/26 07:28:15;;;;;;;7.77;7.07;;;18.30;99.90;;;;;;5084313;28;20189;-39
2021/09/26 07:30:42;;;;;;;7.80;7.10;;;18.30;99.90;;;;;;5078925;28;20189;-40
2021/09/26 07:33:08;;;;;;;8.07;7.27;;;18.30;99.90;;;;;;5064050;28;20189;-39
2021/09/26 07:35:33;;;;;;;9.20;7.50;;;18.40;99.90;;;;;;5084015;28;20437;-39
2021/09/26 07:37:59;;;;;;;7.30;6.70;;;18.50;99.90;;;;;;5065514;28;20204;-39
2021/09/26 07:40:25;;;;;;;7.83;7.13;;;18.60;99.90;;;;;;5085178;28;20242;-41
2021/09/26 07:42:51;;;;;;;7.80;7.10;;;18.80;99.90;;;;;;5084042;28;20546;-39
2021/09/26 07:45:17;;;;;;;7.90;7.10;;;18.90;99.90;;;;;;5077155;28;20193;-41
2021/09/26 07:47:43;;;;;;;8.03;7.23;;;19.00;99.90;;;;;;5086066;28;20413;-41
2021/09/26 07:50:10;;;;;;;9.40;7.50;;;19.10;99.90;;;;;;5084997;28;20457;-39
2021/09/26 07:52:36;;;;;;;8.30;7.60;;;19.20;99.90;;;;;;5085565;28;20483;-39
2021/09/26 07:55:03;;;;;;;7.43;6.70;;;19.20;99.90;;;;;;5085156;28;20764;-39
2021/09/26 07:57:29;;;;;;;7.50;6.80;;;19.30;99.90;;;;;;5085924;28;20429;-39
2021/09/26 07:59:55;;;;;;;7.87;6.60;;;19.40;99.90;;;;;;5079131;28;20471;-41
2021/09/26 08:02:21;;;;;;;8.17;7.37;;;19.50;99.90;;;;;;5070966;28;20664;-39
2021/09/26 08:04:46;;;;;;;8.57;7.80;;;19.50;99.90;;;;;;5075941;28;20200;-39
2021/09/26 08:07:12;;;;;;;8.70;7.90;;;19.50;99.90;;;;;;5084977;28;20518;-38
2021/09/26 08:09:39;;;;;;;7.90;7.20;;;19.60;99.90;;;;;;5085225;28;20180;-39
2021/09/26 08:12:07;;;;;;;7.40;6.67;;;19.70;99.90;;;;;;5083335;28;20433;-39
2021/09/26 08:14:33;;;;;;;8.17;7.47;;;19.90;99.90;;;;;;5082925;28;20445;-40
2021/09/26 08:17:00;;;;;;;8.43;7.63;;;19.90;99.90;;;;;;5079204;28;20928;-38
2021/09/26 08:19:26;;;;;;;7.87;7.07;;;19.90;99.90;;;;;;5077163;28;20759;-39
2021/09/26 08:21:51;;;;;;;8.80;7.90;;;19.90;99.90;;;;;;5082826;28;20925;-41
2021/09/26 08:24:18;;;;;;;7.67;7.07;;;19.90;99.90;;;;;;5082286;28;20421;-40
2021/09/26 08:26:43;;;;;;;8.37;7.67;;;19.90;99.90;;;;;;5084736;28;20246;-38
2021/09/26 08:29:09;;;;;;;9.03;8.17;;;19.90;99.90;;;;;;5084096;28;20455;-40
2021/09/26 08:31:35;;;;;;;8.17;7.47;;;19.90;99.90;;;;;;5079789;28;20189;-42
2021/09/26 08:34:01;;;;;;;8.60;7.77;;;19.90;99.90;;;;;;5081891;28;20185;-39
2021/09/26 08:36:27;;;;;;;8.00;7.20;;;19.90;99.90;;;;;;5085506;28;20191;-40
2021/09/26 08:38:53;;;;;;;7.47;6.77;;;20.00;99.90;;;;;;5085247;28;20216;-39
2021/09/26 08:41:19;;;;;;;8.50;7.53;;;20.00;99.90;;;;;;5083658;28;20491;-38
2021/09/26 08:43:49;;;;;;;9.37;8.47;;;20.00;99.90;;;;;;5080472;28;20422;-39
2021/09/26 08:46:16;;;;;;;8.30;7.27;;;20.10;99.90;;;;;;5077636;28;20938;-42
2021/09/26 08:48:42;;;;;;;8.43;7.73;;;20.10;99.90;;;;;;5083140;28;20559;-42
2021/09/26 08:51:10;;;;;;;7.50;6.90;;;20.20;99.90;;;;;;5083921;28;20430;-40
2021/09/26 08:53:36;;;;;;;7.90;7.20;;;20.30;99.90;;;;;;5083116;28;20766;-40
2021/09/26 08:56:02;;;;;;;9.50;8.47;;;20.40;99.90;;;;;;5084075;28;20517;-39
2021/09/26 08:58:27;;;;;;;9.37;8.47;;;20.40;99.90;;;;;;5083735;28;20214;-45
2021/09/26 09:00:53;;;;;;;8.37;7.47;;;20.40;99.90;;;;;;5078075;28;20185;-39
2021/09/26 09:03:19;;;;;;;8.60;7.80;;;20.50;99.90;;;;;;5081818;28;20811;-40
2021/09/26 09:05:53;;;;;;;9.03;7.93;;;20.50;99.90;;;;;;5081565;28;20421;-43
2021/09/26 09:08:22;;;;;;;9.60;8.70;;;20.60;99.90;;;;;;5084182;28;20198;-39
2021/09/26 09:10:53;;;;;;;9.83;8.20;;;20.60;99.90;;;;;;5086755;28;20903;-41
2021/09/26 09:13:26;;;;;;;8.57;7.87;;;20.70;99.90;;;;;;5088363;28;20442;-39
2021/09/26 09:15:58;;;;;;;8.67;7.97;;;20.80;99.90;;;;;;5085313;28;20456;-41
2021/09/26 09:18:24;;;;;;;8.43;7.73;;;20.90;99.90;;;;;;5087439;28;20554;-42
2021/09/26 09:20:51;;;;;;;8.70;7.80;;;21.00;99.90;;;;;;5089306;28;20411;-38
2021/09/26 09:23:22;;;;;;;8.67;7.77;;;21.10;99.90;;;;;;5087369;28;20426;-41
2021/09/26 09:25:52;;;;;;;9.17;8.33;;;21.20;99.90;;;;;;5081313;28;20487;-43
2021/09/26 09:28:19;;;;;;;8.93;8.23;;;21.30;99.90;;;;;;5081698;28;20542;-43
2021/09/26 09:30:49;;;;;;;9.00;8.30;;;21.40;99.90;;;;;;5083164;28;20941;-39
2021/09/26 09:33:16;;;;;;;9.03;8.13;;;21.50;99.90;;;;;;5078560;28;20411;-40
2021/09/26 09:35:48;;;;;;;8.70;8.00;;;21.60;99.90;;;;;;5088375;28;20538;-40
2021/09/26 09:38:24;;;;;;;8.17;7.50;;;21.80;99.90;;;;;;5074163;28;20592;-41
2021/09/26 09:40:50;;;;;;;9.33;8.30;;;21.90;99.90;;;;;;5086271;28;20486;-42
2021/09/26 09:43:15;;;;;;;7.70;7.07;;;21.90;99.90;;;;;;5081713;28;20822;-42
2021/09/26 09:45:54;;;;;;;8.40;7.60;;;22.00;99.90;;;;;;5084969;28;20543;-41
2021/09/26 09:48:22;;;;;;;9.50;8.67;;;22.10;99.90;;;;;;5082047;28;20872;-43
2021/09/26 09:51:01;;;;;;;8.17;7.47;;;22.20;99.90;;;;;;5083776;28;20509;-40
2021/09/26 09:53:36;;;;;;;8.80;8.00;;;22.30;99.90;;;;;;5085872;28;20518;-45
2021/09/26 09:56:01;;;;;;;8.83;7.93;;;22.40;99.90;;;;;;5087836;28;20415;-43
2021/09/26 09:58:33;;;;;;;8.63;7.93;;;22.40;99.90;;;;;;5088548;28;20916;-40
2021/09/26 10:01:00;;;;;;;8.57;7.70;;;22.50;99.90;;;;;;5082306;28;20209;-44
2021/09/26 10:03:57;;;;;;;7.73;6.93;;;22.50;99.90;;;;;;5082068;28;20445;-40
2021/09/26 10:06:41;;;;;;;7.67;7.00;;;22.60;99.90;;;;;;5087676;28;20793;-43
2021/09/26 10:09:27;;;;;;;7.70;6.97;;;22.70;99.90;;;;;;5088274;28;21032;-42
2021/09/26 10:12:04;;;;;;;7.13;6.53;;;22.70;99.90;;;;;;5086072;28;20425;-43
2021/09/26 10:14:32;;;;;;;9.37;7.43;;;22.80;99.90;;;;;;5083568;28;20453;-40
2021/09/26 10:17:01;;;;;;;6.80;6.20;;;22.80;99.90;;;;;;5076846;28;20427;-41
2021/09/26 10:19:27;;;;;;;6.70;6.10;;;22.80;99.90;;;;;;5083964;28;20489;-41
2021/09/26 10:21:56;;;;;;;7.13;6.47;;;22.80;99.90;;;;;;5086067;28;20414;-43
2021/09/26 10:24:24;;;;;;;8.90;8.00;;;22.80;99.90;;;;;;5085929;28;20188;-45
2021/09/26 10:26:52;;;;;;;8.13;7.37;;;22.90;99.90;;;;;;5087423;28;20975;-43
2021/09/26 10:29:22;;;;;;;7.20;6.43;;;22.90;99.90;;;;;;5083193;28;20834;-43
2021/09/26 10:31:49;;;;;;;8.30;7.50;;;23.00;99.90;;;;;;5073361;28;20813;-43
2021/09/26 10:34:20;;;;;;;7.83;7.13;;;23.10;99.90;;;;;;5080628;28;20421;-43
2021/09/26 10:36:47;;;;;;;8.50;7.70;;;23.20;99.90;;;;;;5085881;28;20427;-41
2021/09/26 10:39:17;;;;;;;8.97;8.10;;;23.20;99.90;;;;;;5087027;28;20523;-42
2021/09/26 10:42:02;;;;;;;8.20;7.50;;;23.20;99.90;;;;;;5084064;28;20463;-43
2021/09/26 10:44:28;;;;;;;8.57;7.77;;;23.10;99.90;;;;;;5084945;28;20410;-41
2021/09/26 10:47:06;;;;;;;10.50;8.73;;;23.10;99.90;;;;;;5079330;28;20423;-40
2021/09/26 10:49:40;;;;;;;8.40;7.60;;;23.10;99.90;;;;;;5085600;28;20605;-43
2021/09/26 10:52:27;;;;;;;7.50;6.90;;;23.10;99.90;;;;;;5084040;28;20431;-43
2021/09/26 10:54:56;;;;;;;7.13;6.30;;;23.10;99.90;;;;;;5084274;28;20425;-42
2021/09/26 10:57:27;;;;;;;5.60;5.10;;;23.20;99.90;;;;;;5085767;28;20433;-41
2021/09/26 11:00:04;;;;;;;4.57;4.10;;;23.20;99.90;;;;;;5082841;28;20477;-42
2021/09/26 11:02:30;;;;;;;6.00;3.80;;;23.30;99.90;;;;;;5076058;28;20471;-42
2021/09/26 11:04:58;;;;;;;4.50;4.10;;;23.30;99.90;;;;;;5085444;28;20434;-41
2021/09/26 11:07:30;;;;;;;5.37;4.40;;;23.40;99.90;;;;;;5084281;28;20183;-40
2021/09/26 11:10:02;;;;;;;4.93;4.43;;;23.40;99.90;;;;;;5086051;28;20450;-40
2021/09/26 11:13:05;;;;;;;5.40;4.33;;;23.50;99.90;;;;;;5082640;28;20730;-42
2021/09/26 11:15:31;;;;;;;5.67;3.90;;;23.50;99.90;;;;;;5084981;28;20812;-43
2021/09/26 11:17:57;;;;;;;5.53;4.90;;;23.60;99.90;;;;;;5080870;28;20430;-43
2021/09/26 11:20:26;;;;;;;5.00;4.30;;;23.60;99.90;;;;;;5084879;28;20192;-44
2021/09/26 11:23:17;;;;;;;4.53;4.17;;;23.50;99.90;;;;;;5082433;28;20429;-41
2021/09/26 11:26:00;;;;;;;6.00;5.20;;;23.50;99.90;;;;;;5085448;28;20476;-37
2021/09/26 11:28:37;;;;;;;6.53;5.83;;;23.60;99.90;;;;;;5084911;28;20868;-41
2021/09/26 11:31:09;;;;;;;5.70;5.00;;;23.50;99.90;;;;;;5082917;28;21090;-39
2021/09/26 11:33:57;;;;;;;4.90;4.50;;;23.60;99.90;;;;;;5078493;28;20831;-40
2021/09/26 11:36:26;;;;;;;5.80;4.87;;;23.60;99.90;;;;;;5081877;28;20914;-42
2021/09/26 11:38:52;;;;;;;7.93;4.93;;;23.70;99.90;;;;;;5084802;28;20458;-37
2021/09/26 11:41:36;;;;;;;5.53;5.03;;;23.70;99.90;;;;;;5081768;28;20724;-37
2021/09/26 11:44:06;;;;;;;5.33;4.83;;;23.60;99.90;;;;;;5082247;28;20411;-39
2021/09/26 11:46:32;;;;;;;7.10;4.77;;;23.70;99.90;;;;;;5083217;28;20744;-38
2021/09/26 11:49:05;;;;;;;5.50;5.00;;;23.70;99.90;;;;;;5073585;28;20872;-41
2021/09/26 11:51:31;;;;;;;6.83;5.83;;;23.80;99.90;;;;;;5085601;28;20422;-38
2021/09/26 11:53:57;;;;;;;5.57;5.10;;;23.80;99.90;;;;;;5085454;28;20428;-41
2021/09/26 11:56:30;;;;;;;6.60;4.50;;;23.70;99.90;;;;;;5085927;28;20418;-39
2021/09/26 11:59:00;;;;;;;5.93;5.33;;;23.80;99.90;;;;;;5085679;28;20494;-43
2021/09/26 12:01:35;;;;;;;8.10;5.83;;;23.80;99.90;;;;;;5086036;28;20430;-40
2021/09/26 12:04:22;;;;;;;5.83;5.03;;;23.90;99.90;;;;;;5076879;28;20948;-38
2021/09/26 12:07:00;;;;;;;6.27;4.27;;;23.90;99.90;;;;;;5080933;28;20513;-40
2021/09/26 12:09:49;;;;;;;5.17;4.70;;;23.90;99.90;;;;;;5086073;28;20446;-40
2021/09/26 12:12:18;;;;;;;6.60;5.00;;;23.90;99.90;;;;;;5085689;28;20427;-39
2021/09/26 12:14:59;;;;;;;5.87;4.97;;;23.90;99.90;;;;;;5083631;28;20433;-41
2021/09/26 12:17:28;;;;;;;5.43;4.50;;;23.90;99.90;;;;;;5079820;28;20431;-42
2021/09/26 12:20:03;;;;;;;5.57;5.03;;;23.90;99.90;;;;;;5082047;28;21012;-40
2021/09/26 12:22:30;;;;;;;6.97;4.80;;;23.80;99.90;;;;;;5085548;28;20414;-40
2021/09/26 12:25:05;;;;;;;7.40;4.93;;;23.90;99.90;;;;;;5084232;28;20425;-37
2021/09/26 12:27:46;;;;;;;5.27;4.50;;;23.90;99.90;;;;;;5084100;28;20498;-39
2021/09/26 12:30:27;;;;;;;8.40;5.30;;;23.90;99.90;;;;;;5085477;28;20414;-38
2021/09/26 12:32:55;;;;;;;6.40;5.33;;;23.90;99.90;;;;;;5077886;28;20966;-37
2021/09/26 12:35:34;;;;;;;5.37;4.87;;;23.80;99.90;;;;;;5080607;28;20406;-39
2021/09/26 12:38:06;;;;;;;5.20;4.70;;;23.80;99.90;;;;;;5085272;28;20422;-39
2021/09/26 12:40:36;;;;;;;6.00;4.50;;;23.90;99.90;;;;;;5085342;28;20410;-37
2021/09/26 12:43:05;;;;;;;8.20;5.10;;;23.90;99.90;;;;;;5080114;28;20896;-41
2021/09/26 12:45:39;;;;;;;7.57;4.70;;;23.90;99.90;;;;;;5081725;28;20464;-44
2021/09/26 12:48:08;;;;;;;5.33;4.93;;;23.90;99.90;;;;;;5070296;28;20438;-43
2021/09/26 12:50:41;;;;;;;5.43;4.93;;;23.90;99.90;;;;;;5070621;28;20818;-45
2021/09/26 12:53:08;;;;;;;4.70;4.30;;;23.90;99.90;;;;;;5084510;28;20414;-39
2021/09/26 12:55:36;;;;;;;5.37;4.90;;;23.90;99.90;;;;;;5084929;28;20689;-40